Time;durP1;ratioP1;P1;durP2;ratioP2;P2;SDS_P1;SDS_P2;PMS_P1;PMS_P2;Temp;Humidity;BMP_temperature;BMP_pressure;BME280_temperature;BME280_humidity;BME280_pressure;Samples;Min_cycle;Max_cycle;Signal;HPM_P1;HPM_P2
2022/02/27 00:00:01;;;;;;;15.53;6.43;;;;;;;;;;521444;28;1213;-75
2022/02/27 00:00:16;;;;;;;14.15;6.32;;;;;;;;;;521617;28;1516;-76
2022/02/27 00:00:31;;;;;;;12.70;6.50;;;;;;;;;;523782;28;650;-75
2022/02/27 00:00:47;;;;;;;14.17;6.73;;;;;;;;;;523733;28;1261;-76
2022/02/27 00:01:03;;;;;;;14.68;6.80;;;;;;;;;;523956;28;970;-75
2022/02/27 00:01:19;;;;;;;13.73;6.70;;;;;;;;;;522276;28;871;-76
2022/02/27 00:01:34;;;;;;;12.75;6.53;;;;;;;;;;523867;28;891;-75
2022/02/27 00:01:50;;;;;;;12.13;6.60;;;;;;;;;;523217;28;1263;-75
2022/02/27 00:02:05;;;;;;;12.50;6.78;;;;;;;;;;521186;28;1182;-76
2022/02/27 00:02:20;;;;;;;14.03;6.67;;;;;;;;;;522693;28;1366;-76
2022/02/27 00:02:35;;;;;;;16.33;7.07;;;;;;;;;;523719;28;1147;-76
2022/02/27 00:02:51;;;;;;;16.40;7.53;;;;;;;;;;523486;28;1564;-76
2022/02/27 00:03:06;;;;;;;15.40;7.37;;;;;;;;;;523662;28;1156;-75
2022/02/27 00:03:21;;;;;;;16.43;7.20;;;;;;;;;;521639;28;1180;-76
2022/02/27 00:03:38;;;;;;;16.17;7.20;;;;;;;;;;521677;28;911;-75
2022/02/27 00:03:53;;;;;;;15.57;7.18;;;;;;;;;;523611;28;1195;-75
2022/02/27 00:04:09;;;;;;;15.45;7.15;;;;;;;;;;523364;28;744;-75
2022/02/27 00:04:25;;;;;;;14.47;7.43;;;;;;;;;;523288;28;878;-75
2022/02/27 00:04:41;;;;;;;16.20;7.78;;;;;;;;;;523103;28;1202;-75
2022/02/27 00:04:56;;;;;;;16.33;7.50;;;;;;;;;;521569;28;1182;-75
2022/02/27 00:05:11;;;;;;;14.33;7.50;;;;;;;;;;522453;28;1477;-75
2022/02/27 00:05:27;;;;;;;15.00;7.50;;;;;;;;;;525104;28;879;-75
2022/02/27 00:05:42;;;;;;;15.68;7.30;;;;;;;;;;522779;28;812;-75
2022/02/27 00:05:58;;;;;;;14.37;7.13;;;;;;;;;;521335;28;1171;-75
2022/02/27 00:06:13;;;;;;;15.53;7.03;;;;;;;;;;522271;28;737;-74
2022/02/27 00:06:28;;;;;;;18.37;7.10;;;;;;;;;;523702;28;1288;-74
2022/02/27 00:06:43;;;;;;;17.70;7.07;;;;;;;;;;524040;28;760;-75
2022/02/27 00:06:59;;;;;;;16.47;7.20;;;;;;;;;;525812;28;752;-74
2022/02/27 00:07:14;;;;;;;15.70;7.20;;;;;;;;;;525141;28;914;-75
2022/02/27 00:07:29;;;;;;;15.90;6.93;;;;;;;;;;523967;28;923;-75
2022/02/27 00:07:45;;;;;;;14.37;6.73;;;;;;;;;;525995;28;819;-75
2022/02/27 00:08:00;;;;;;;13.10;6.80;;;;;;;;;;525916;28;1913;-75
2022/02/27 00:08:15;;;;;;;15.02;7.20;;;;;;;;;;523246;28;1289;-75
2022/02/27 00:08:31;;;;;;;16.83;7.30;;;;;;;;;;525611;28;1394;-75
2022/02/27 00:08:46;;;;;;;16.60;6.93;;;;;;;;;;525942;28;740;-75
2022/02/27 00:09:02;;;;;;;15.60;7.00;;;;;;;;;;523766;28;1159;-75
2022/02/27 00:09:17;;;;;;;13.80;6.85;;;;;;;;;;521117;28;1331;-75
2022/02/27 00:09:33;;;;;;;13.03;6.87;;;;;;;;;;521908;28;832;-75
2022/02/27 00:09:48;;;;;;;15.13;7.35;;;;;;;;;;521434;28;1172;-75
2022/02/27 00:10:04;;;;;;;16.73;7.23;;;;;;;;;;519663;28;1403;-75
2022/02/27 00:10:21;;;;;;;16.42;6.97;;;;;;;;;;520557;28;1247;-75
2022/02/27 00:10:37;;;;;;;14.93;6.88;;;;;;;;;;521430;28;1383;-75
2022/02/27 00:10:52;;;;;;;14.38;6.78;;;;;;;;;;522375;28;588;-75
2022/02/27 00:11:07;;;;;;;15.27;7.00;;;;;;;;;;523483;28;765;-75
2022/02/27 00:11:23;;;;;;;16.08;7.28;;;;;;;;;;523621;28;883;-75
2022/02/27 00:11:38;;;;;;;15.13;7.27;;;;;;;;;;522220;28;1342;-75
2022/02/27 00:11:53;;;;;;;15.37;7.33;;;;;;;;;;524002;28;754;-75
2022/02/27 00:12:09;;;;;;;16.10;7.40;;;;;;;;;;525558;28;708;-75
2022/02/27 00:12:24;;;;;;;14.53;7.20;;;;;;;;;;525281;28;826;-75
2022/02/27 00:12:40;;;;;;;12.75;6.95;;;;;;;;;;527814;28;727;-75
2022/02/27 00:12:55;;;;;;;12.27;6.53;;;;;;;;;;527858;28;747;-75
2022/02/27 00:13:10;;;;;;;14.63;6.70;;;;;;;;;;527908;28;802;-75
2022/02/27 00:13:25;;;;;;;16.45;7.05;;;;;;;;;;527861;28;760;-75
2022/02/27 00:13:41;;;;;;;14.97;7.00;;;;;;;;;;529802;27;1373;-75
2022/02/27 00:13:56;;;;;;;14.63;6.97;;;;;;;;;;529931;27;922;-75
2022/02/27 00:14:11;;;;;;;14.97;7.13;;;;;;;;;;529756;27;921;-75
2022/02/27 00:14:26;;;;;;;15.50;7.25;;;;;;;;;;522678;28;1169;-75
2022/02/27 00:14:42;;;;;;;15.67;7.00;;;;;;;;;;522270;28;941;-75
2022/02/27 00:14:57;;;;;;;14.17;6.87;;;;;;;;;;523318;28;1208;-75
2022/02/27 00:15:12;;;;;;;12.90;6.70;;;;;;;;;;522102;28;1488;-75
2022/02/27 00:15:28;;;;;;;13.17;6.60;;;;;;;;;;523310;28;1580;-75
2022/02/27 00:15:43;;;;;;;13.80;6.73;;;;;;;;;;522452;28;1305;-75
2022/02/27 00:15:58;;;;;;;14.10;6.93;;;;;;;;;;523642;28;1127;-74
2022/02/27 00:16:13;;;;;;;13.20;6.72;;;;;;;;;;522726;28;1263;-75
2022/02/27 00:16:29;;;;;;;13.33;6.60;;;;;;;;;;523135;28;863;-75
2022/02/27 00:16:44;;;;;;;14.37;7.10;;;;;;;;;;522060;28;1325;-75
2022/02/27 00:16:59;;;;;;;14.75;7.28;;;;;;;;;;522920;28;989;-74
2022/02/27 00:17:14;;;;;;;13.97;6.97;;;;;;;;;;523679;28;756;-76
2022/02/27 00:17:30;;;;;;;15.00;6.70;;;;;;;;;;522425;28;1277;-75
2022/02/27 00:17:45;;;;;;;15.85;6.95;;;;;;;;;;525774;28;791;-75
2022/02/27 00:18:01;;;;;;;15.60;7.20;;;;;;;;;;525049;28;1234;-75
2022/02/27 00:18:16;;;;;;;15.17;7.17;;;;;;;;;;527062;28;1221;-75
2022/02/27 00:18:31;;;;;;;15.40;6.88;;;;;;;;;;525132;28;1297;-75
2022/02/27 00:18:46;;;;;;;14.73;6.37;;;;;;;;;;522752;28;1265;-76
2022/02/27 00:19:02;;;;;;;15.13;6.27;;;;;;;;;;523880;28;923;-76
2022/02/27 00:19:17;;;;;;;15.00;6.45;;;;;;;;;;525338;28;756;-75
2022/02/27 00:19:33;;;;;;;14.37;6.30;;;;;;;;;;525909;28;752;-75
2022/02/27 00:19:48;;;;;;;13.68;6.15;;;;;;;;;;525841;28;831;-76
2022/02/27 00:20:05;;;;;;;12.83;6.13;;;;;;;;;;525295;28;1523;-76
2022/02/27 00:20:20;;;;;;;14.52;6.50;;;;;;;;;;522488;28;1353;-75
2022/02/27 00:20:36;;;;;;;15.43;6.60;;;;;;;;;;525352;28;756;-75
2022/02/27 00:20:52;;;;;;;15.00;6.50;;;;;;;;;;525804;28;810;-75
2022/02/27 00:21:07;;;;;;;14.73;6.60;;;;;;;;;;525916;28;779;-75
2022/02/27 00:21:22;;;;;;;15.47;7.00;;;;;;;;;;527827;28;1418;-75
2022/02/27 00:21:38;;;;;;;16.00;6.80;;;;;;;;;;527991;28;1139;-75
2022/02/27 00:21:53;;;;;;;15.20;6.60;;;;;;;;;;527708;28;870;-75
2022/02/27 00:22:08;;;;;;;14.03;6.50;;;;;;;;;;528173;27;736;-75
2022/02/27 00:22:23;;;;;;;14.63;6.50;;;;;;;;;;528121;27;748;-75
2022/02/27 00:22:40;;;;;;;15.63;6.60;;;;;;;;;;525514;28;1357;-75
2022/02/27 00:22:55;;;;;;;15.35;6.57;;;;;;;;;;525549;28;724;-76
2022/02/27 00:23:10;;;;;;;14.13;6.70;;;;;;;;;;525463;28;704;-75
2022/02/27 00:23:26;;;;;;;13.43;6.70;;;;;;;;;;525510;28;1289;-75
2022/02/27 00:23:41;;;;;;;14.33;6.70;;;;;;;;;;525624;28;932;-75
2022/02/27 00:23:57;;;;;;;15.68;6.55;;;;;;;;;;527959;28;827;-75
2022/02/27 00:24:12;;;;;;;15.00;6.60;;;;;;;;;;525082;28;1292;-74
2022/02/27 00:24:27;;;;;;;14.00;6.68;;;;;;;;;;523853;28;1206;-75
2022/02/27 00:24:43;;;;;;;13.97;6.60;;;;;;;;;;525635;28;828;-74
2022/02/27 00:24:58;;;;;;;14.97;6.60;;;;;;;;;;525232;28;947;-75
2022/02/27 00:25:14;;;;;;;15.37;6.80;;;;;;;;;;524172;28;1456;-74
2022/02/27 00:25:29;;;;;;;15.82;6.95;;;;;;;;;;523048;28;1218;-74
2022/02/27 00:25:44;;;;;;;15.93;6.83;;;;;;;;;;521849;28;831;-75
2022/02/27 00:26:00;;;;;;;15.13;6.63;;;;;;;;;;521827;28;966;-75
2022/02/27 00:26:15;;;;;;;14.53;6.73;;;;;;;;;;523011;28;1146;-74
2022/02/27 00:26:30;;;;;;;15.33;6.73;;;;;;;;;;525965;28;1262;-75
2022/02/27 00:26:46;;;;;;;15.20;6.53;;;;;;;;;;525918;28;755;-75
2022/02/27 00:27:01;;;;;;;13.20;6.63;;;;;;;;;;525423;28;1209;-75
2022/02/27 00:27:17;;;;;;;13.63;6.43;;;;;;;;;;524413;28;755;-76
2022/02/27 00:27:34;;;;;;;15.40;6.50;;;;;;;;;;523688;28;681;-75
2022/02/27 00:27:49;;;;;;;13.85;6.60;;;;;;;;;;521579;28;1973;-75
2022/02/27 00:28:04;;;;;;;13.73;6.68;;;;;;;;;;522010;28;721;-75
2022/02/27 00:28:20;;;;;;;14.67;6.80;;;;;;;;;;523491;28;661;-75
2022/02/27 00:28:35;;;;;;;14.43;6.60;;;;;;;;;;523100;28;776;-75
2022/02/27 00:28:50;;;;;;;14.53;6.50;;;;;;;;;;523991;28;748;-75
2022/02/27 00:29:05;;;;;;;13.63;6.73;;;;;;;;;;526440;28;1377;-76
2022/02/27 00:29:21;;;;;;;15.48;6.90;;;;;;;;;;526821;28;1400;-75
2022/02/27 00:29:37;;;;;;;17.80;6.93;;;;;;;;;;526437;28;1345;-75
2022/02/27 00:29:52;;;;;;;15.80;6.97;;;;;;;;;;527717;28;938;-75
2022/02/27 00:30:09;;;;;;;14.20;6.83;;;;;;;;;;526858;28;1498;-75
2022/02/27 00:30:24;;;;;;;13.77;6.35;;;;;;;;;;526505;28;1372;-75
2022/02/27 00:30:40;;;;;;;13.53;6.57;;;;;;;;;;526635;28;795;-75
2022/02/27 00:30:55;;;;;;;15.40;6.95;;;;;;;;;;528093;28;748;-75
2022/02/27 00:31:10;;;;;;;16.50;6.87;;;;;;;;;;524678;28;1248;-75
2022/02/27 00:31:26;;;;;;;14.60;6.67;;;;;;;;;;523807;28;764;-75
2022/02/27 00:31:41;;;;;;;13.00;6.43;;;;;;;;;;523963;28;796;-75
2022/02/27 00:31:56;;;;;;;12.17;6.33;;;;;;;;;;523901;28;839;-75
2022/02/27 00:32:12;;;;;;;14.70;6.80;;;;;;;;;;524146;28;899;-75
2022/02/27 00:32:27;;;;;;;14.70;7.03;;;;;;;;;;527759;28;1308;-75
2022/02/27 00:32:42;;;;;;;14.77;6.80;;;;;;;;;;528007;28;779;-75
2022/02/27 00:32:57;;;;;;;15.30;6.90;;;;;;;;;;528141;28;800;-76
2022/02/27 00:33:13;;;;;;;15.93;6.97;;;;;;;;;;525227;28;1154;-75
2022/02/27 00:33:28;;;;;;;16.60;6.90;;;;;;;;;;523649;28;1299;-75
2022/02/27 00:33:43;;;;;;;13.77;6.78;;;;;;;;;;523711;28;927;-75
2022/02/27 00:33:59;;;;;;;13.90;6.67;;;;;;;;;;523731;28;768;-75
2022/02/27 00:34:14;;;;;;;15.27;6.73;;;;;;;;;;520742;28;1275;-75
2022/02/27 00:34:31;;;;;;;13.25;6.28;;;;;;;;;;522362;28;1464;-75
2022/02/27 00:34:46;;;;;;;12.57;6.13;;;;;;;;;;522809;28;1433;-75
2022/02/27 00:35:02;;;;;;;14.10;6.60;;;;;;;;;;521347;28;689;-75
2022/02/27 00:35:17;;;;;;;14.48;6.85;;;;;;;;;;521317;28;1546;-76
2022/02/27 00:35:33;;;;;;;13.77;6.70;;;;;;;;;;525664;28;716;-75
2022/02/27 00:35:48;;;;;;;14.93;6.80;;;;;;;;;;523606;28;1353;-75
2022/02/27 00:36:04;;;;;;;14.50;6.90;;;;;;;;;;524533;28;1436;-75
2022/02/27 00:36:19;;;;;;;15.87;6.50;;;;;;;;;;522464;28;1563;-75
2022/02/27 00:36:34;;;;;;;18.33;6.28;;;;;;;;;;521889;28;974;-75
2022/02/27 00:36:51;;;;;;;15.27;6.17;;;;;;;;;;521717;28;1522;-76
2022/02/27 00:37:06;;;;;;;13.70;6.20;;;;;;;;;;519658;28;1499;-76
2022/02/27 00:37:22;;;;;;;14.73;6.33;;;;;;;;;;520654;28;921;-76
2022/02/27 00:37:37;;;;;;;14.35;6.30;;;;;;;;;;520137;28;1409;-75
2022/02/27 00:37:52;;;;;;;13.40;6.10;;;;;;;;;;521525;28;768;-75
2022/02/27 00:38:08;;;;;;;12.27;6.10;;;;;;;;;;522186;28;752;-75
2022/02/27 00:38:23;;;;;;;14.35;6.50;;;;;;;;;;523839;28;800;-75
2022/02/27 00:38:39;;;;;;;14.98;6.60;;;;;;;;;;521986;28;1310;-75
2022/02/27 00:38:54;;;;;;;15.97;6.40;;;;;;;;;;524196;28;796;-74
2022/02/27 00:39:10;;;;;;;18.40;6.60;;;;;;;;;;525641;28;737;-76
2022/02/27 00:39:26;;;;;;;16.85;6.82;;;;;;;;;;525549;28;713;-75
2022/02/27 00:39:41;;;;;;;14.93;6.60;;;;;;;;;;528099;28;755;-75
2022/02/27 00:39:57;;;;;;;13.25;6.50;;;;;;;;;;525831;28;1215;-75
2022/02/27 00:40:12;;;;;;;12.83;6.40;;;;;;;;;;524315;28;1473;-75
2022/02/27 00:40:28;;;;;;;12.82;6.22;;;;;;;;;;524679;28;993;-75
2022/02/27 00:40:43;;;;;;;13.13;6.10;;;;;;;;;;526477;28;2418;-75
2022/02/27 00:40:58;;;;;;;15.10;6.40;;;;;;;;;;527970;28;779;-75
2022/02/27 00:41:14;;;;;;;14.77;6.65;;;;;;;;;;527847;28;1144;-75
2022/02/27 00:41:29;;;;;;;14.23;6.67;;;;;;;;;;527402;28;847;-75
2022/02/27 00:41:44;;;;;;;14.73;6.50;;;;;;;;;;527652;28;1275;-76
2022/02/27 00:42:00;;;;;;;15.07;6.25;;;;;;;;;;525794;28;943;-75
2022/02/27 00:42:15;;;;;;;14.23;6.27;;;;;;;;;;526145;28;670;-75
2022/02/27 00:42:30;;;;;;;14.00;6.60;;;;;;;;;;527792;28;1130;-75
2022/02/27 00:42:46;;;;;;;14.70;6.50;;;;;;;;;;528049;28;847;-77
2022/02/27 00:43:01;;;;;;;13.13;6.17;;;;;;;;;;527787;28;811;-76
2022/02/27 00:43:16;;;;;;;12.18;6.10;;;;;;;;;;527605;28;1157;-77
2022/02/27 00:43:32;;;;;;;13.37;6.20;;;;;;;;;;524229;28;1286;-75
2022/02/27 00:43:47;;;;;;;14.33;6.30;;;;;;;;;;525953;28;788;-76
2022/02/27 00:44:03;;;;;;;13.95;6.20;;;;;;;;;;523745;28;1481;-76
2022/02/27 00:44:18;;;;;;;13.77;6.05;;;;;;;;;;523242;28;753;-76
2022/02/27 00:44:33;;;;;;;15.53;6.23;;;;;;;;;;523554;28;689;-76
2022/02/27 00:44:49;;;;;;;17.00;6.67;;;;;;;;;;523558;28;918;-75
2022/02/27 00:45:05;;;;;;;14.83;6.60;;;;;;;;;;523360;28;1427;-76
2022/02/27 00:45:21;;;;;;;14.45;6.30;;;;;;;;;;521443;28;1203;-76
2022/02/27 00:45:36;;;;;;;14.03;6.37;;;;;;;;;;522720;28;1221;-75
2022/02/27 00:45:51;;;;;;;12.38;6.10;;;;;;;;;;521234;28;1141;-75
2022/02/27 00:46:07;;;;;;;13.80;5.90;;;;;;;;;;523744;28;870;-76
2022/02/27 00:46:22;;;;;;;14.70;6.18;;;;;;;;;;525521;28;1192;-75
2022/02/27 00:46:38;;;;;;;13.37;6.30;;;;;;;;;;524265;28;1034;-76
2022/02/27 00:46:53;;;;;;;12.33;6.17;;;;;;;;;;522666;28;1359;-76
2022/02/27 00:47:08;;;;;;;12.53;6.17;;;;;;;;;;522330;28;1034;-75
2022/02/27 00:47:24;;;;;;;12.30;6.37;;;;;;;;;;525866;28;844;-75
2022/02/27 00:47:39;;;;;;;14.07;6.80;;;;;;;;;;526747;28;1630;-76
2022/02/27 00:47:54;;;;;;;16.30;6.70;;;;;;;;;;526311;28;1929;-75
2022/02/27 00:48:09;;;;;;;14.83;6.17;;;;;;;;;;527915;28;1019;-75
2022/02/27 00:48:25;;;;;;;12.73;5.75;;;;;;;;;;527855;28;839;-75
2022/02/27 00:48:40;;;;;;;13.10;5.73;;;;;;;;;;527604;28;980;-75
2022/02/27 00:48:55;;;;;;;14.43;6.20;;;;;;;;;;528101;28;819;-75
2022/02/27 00:49:11;;;;;;;15.88;6.32;;;;;;;;;;527566;28;977;-75
2022/02/27 00:49:26;;;;;;;15.30;6.07;;;;;;;;;;527540;28;1312;-75
2022/02/27 00:49:41;;;;;;;12.97;5.70;;;;;;;;;;527700;28;1335;-74
2022/02/27 00:49:57;;;;;;;12.98;5.80;;;;;;;;;;527509;28;764;-75
2022/02/27 00:50:12;;;;;;;14.47;6.10;;;;;;;;;;524470;28;1615;-75
2022/02/27 00:50:28;;;;;;;14.80;6.10;;;;;;;;;;524479;28;827;-74
2022/02/27 00:50:43;;;;;;;12.43;5.90;;;;;;;;;;525011;28;851;-75
2022/02/27 00:50:58;;;;;;;13.23;6.20;;;;;;;;;;525853;28;856;-76
2022/02/27 00:51:14;;;;;;;14.35;6.20;;;;;;;;;;524564;28;641;-75
2022/02/27 00:51:29;;;;;;;13.30;5.90;;;;;;;;;;523894;28;851;-75
2022/02/27 00:51:44;;;;;;;12.67;5.97;;;;;;;;;;523582;28;1364;-75
2022/02/27 00:52:00;;;;;;;12.80;5.90;;;;;;;;;;523319;28;840;-75
2022/02/27 00:52:18;;;;;;;14.40;5.90;;;;;;;;;;526240;28;1137;-74
2022/02/27 00:52:34;;;;;;;13.55;5.85;;;;;;;;;;527583;28;823;-75
2022/02/27 00:52:50;;;;;;;14.50;5.78;;;;;;;;;;527588;28;1000;-75
2022/02/27 00:53:06;;;;;;;17.23;6.10;;;;;;;;;;525664;28;1131;-75
2022/02/27 00:53:21;;;;;;;15.50;5.90;;;;;;;;;;525831;28;1060;-76
2022/02/27 00:53:37;;;;;;;14.10;5.90;;;;;;;;;;525834;28;811;-76
2022/02/27 00:53:52;;;;;;;14.40;6.25;;;;;;;;;;524973;28;924;-74
2022/02/27 00:54:07;;;;;;;13.63;6.10;;;;;;;;;;526314;28;800;-75
2022/02/27 00:54:23;;;;;;;11.57;5.60;;;;;;;;;;527387;28;835;-75
2022/02/27 00:54:38;;;;;;;11.83;5.70;;;;;;;;;;528067;28;787;-75
2022/02/27 00:54:53;;;;;;;13.80;6.03;;;;;;;;;;527695;28;958;-76
2022/02/27 00:55:09;;;;;;;13.67;6.00;;;;;;;;;;526868;28;1513;-75
2022/02/27 00:55:25;;;;;;;13.65;5.93;;;;;;;;;;526877;28;744;-75
2022/02/27 00:55:41;;;;;;;13.77;5.85;;;;;;;;;;525217;28;1276;-75
2022/02/27 00:55:56;;;;;;;13.77;5.88;;;;;;;;;;525747;28;847;-75
2022/02/27 00:56:11;;;;;;;14.13;6.10;;;;;;;;;;526224;28;677;-75
2022/02/27 00:56:27;;;;;;;14.17;6.10;;;;;;;;;;527697;28;1320;-74
2022/02/27 00:56:42;;;;;;;13.02;6.00;;;;;;;;;;527836;28;799;-74
2022/02/27 00:56:57;;;;;;;11.33;5.70;;;;;;;;;;527838;28;791;-75
2022/02/27 00:57:13;;;;;;;12.27;5.72;;;;;;;;;;524134;28;1269;-75
2022/02/27 00:57:29;;;;;;;12.47;5.90;;;;;;;;;;523359;28;1395;-75
2022/02/27 00:57:44;;;;;;;12.27;5.90;;;;;;;;;;523742;28;942;-75
2022/02/27 00:58:00;;;;;;;12.53;5.80;;;;;;;;;;523599;28;1141;-75
2022/02/27 00:58:15;;;;;;;12.53;5.70;;;;;;;;;;523438;28;1580;-75
2022/02/27 00:58:31;;;;;;;12.97;5.73;;;;;;;;;;523093;28;1115;-76
2022/02/27 00:58:50;;;;;;;12.98;6.00;;;;;;;;;;523193;28;951;-76
2022/02/27 00:59:05;;;;;;;12.68;6.13;;;;;;;;;;524618;28;812;-75
2022/02/27 00:59:21;;;;;;;12.07;5.70;;;;;;;;;;524349;28;938;-76
2022/02/27 00:59:36;;;;;;;12.37;5.67;;;;;;;;;;521536;28;1151;-76
2022/02/27 00:59:51;;;;;;;12.73;5.80;;;;;;;;;;520011;28;1191;-75
2022/02/27 01:00:08;;;;;;;12.50;6.30;;;;;;;;;;521405;28;1618;-75
2022/02/27 01:00:23;;;;;;;13.98;7.20;;;;;;;;;;523947;28;875;-75
2022/02/27 01:00:38;;;;;;;15.90;8.35;;;;;;;;;;525609;28;958;-76
2022/02/27 01:00:54;;;;;;;15.67;9.30;;;;;;;;;;523515;28;1239;-75
2022/02/27 01:01:09;;;;;;;14.53;10.23;;;;;;;;;;523541;28;981;-75
2022/02/27 01:01:24;;;;;;;14.80;10.27;;;;;;;;;;523985;28;844;-75
2022/02/27 01:01:40;;;;;;;14.90;9.60;;;;;;;;;;526144;28;923;-75
2022/02/27 01:01:55;;;;;;;15.50;9.57;;;;;;;;;;525578;28;1119;-75
2022/02/27 01:02:11;;;;;;;15.32;9.25;;;;;;;;;;525799;28;830;-76
2022/02/27 01:02:26;;;;;;;14.63;8.52;;;;;;;;;;523258;28;919;-75
2022/02/27 01:02:42;;;;;;;13.23;7.67;;;;;;;;;;523676;28;835;-76
2022/02/27 01:02:58;;;;;;;13.07;7.15;;;;;;;;;;523935;28;757;-75
2022/02/27 01:03:13;;;;;;;12.88;6.75;;;;;;;;;;525405;28;1203;-76
2022/02/27 01:03:29;;;;;;;12.17;6.47;;;;;;;;;;523320;28;1351;-76
2022/02/27 01:03:44;;;;;;;13.07;6.50;;;;;;;;;;523429;28;930;-75
2022/02/27 01:04:00;;;;;;;11.85;6.10;;;;;;;;;;521413;28;1367;-75
2022/02/27 01:04:16;;;;;;;12.43;5.93;;;;;;;;;;518569;28;1291;-76
2022/02/27 01:04:31;;;;;;;15.02;6.28;;;;;;;;;;519476;28;1354;-76
2022/02/27 01:04:46;;;;;;;14.47;6.37;;;;;;;;;;520685;28;1449;-76
2022/02/27 01:05:03;;;;;;;12.43;5.93;;;;;;;;;;519719;28;697;-75
2022/02/27 01:05:18;;;;;;;11.10;5.43;;;;;;;;;;521475;28;2293;-76
2022/02/27 01:05:34;;;;;;;12.00;5.47;;;;;;;;;;519298;28;1178;-76
2022/02/27 01:05:49;;;;;;;14.13;5.70;;;;;;;;;;521381;28;884;-75
2022/02/27 01:06:04;;;;;;;13.50;5.93;;;;;;;;;;523778;28;713;-76
2022/02/27 01:06:20;;;;;;;10.90;5.78;;;;;;;;;;525248;28;1286;-76
2022/02/27 01:06:35;;;;;;;12.70;5.60;;;;;;;;;;523400;28;1352;-76
2022/02/27 01:06:50;;;;;;;12.90;5.67;;;;;;;;;;525228;28;1321;-76
2022/02/27 01:07:06;;;;;;;11.75;5.72;;;;;;;;;;523286;28;823;-76
2022/02/27 01:07:21;;;;;;;13.00;5.70;;;;;;;;;;522970;28;1322;-76
2022/02/27 01:07:37;;;;;;;12.45;5.88;;;;;;;;;;525537;28;945;-76
2022/02/27 01:07:52;;;;;;;12.07;5.90;;;;;;;;;;523356;28;1922;-75
2022/02/27 01:08:07;;;;;;;12.97;5.70;;;;;;;;;;523679;28;776;-76
2022/02/27 01:08:23;;;;;;;12.83;5.80;;;;;;;;;;523418;28;781;-76
2022/02/27 01:08:39;;;;;;;12.65;6.00;;;;;;;;;;522983;28;721;-75
2022/02/27 01:08:58;;;;;;;13.13;5.87;;;;;;;;;;523461;28;764;-75
2022/02/27 01:09:14;;;;;;;13.20;5.80;;;;;;;;;;521994;28;1361;-75
2022/02/27 01:09:29;;;;;;;12.70;5.87;;;;;;;;;;523824;28;854;-75
2022/02/27 01:09:44;;;;;;;13.37;5.80;;;;;;;;;;524504;28;867;-75
2022/02/27 01:09:59;;;;;;;12.77;5.80;;;;;;;;;;525546;28;887;-75
2022/02/27 01:10:15;;;;;;;10.83;5.60;;;;;;;;;;525094;28;1543;-75
2022/02/27 01:10:31;;;;;;;11.37;5.80;;;;;;;;;;523644;28;1550;-75
2022/02/27 01:10:46;;;;;;;12.13;5.80;;;;;;;;;;524982;28;831;-76
2022/02/27 01:11:01;;;;;;;12.13;5.70;;;;;;;;;;525641;28;785;-76
2022/02/27 01:11:16;;;;;;;11.60;5.85;;;;;;;;;;524204;28;836;-76
2022/02/27 01:11:33;;;;;;;11.97;5.87;;;;;;;;;;523764;28;1009;-77
2022/02/27 01:11:48;;;;;;;13.43;5.85;;;;;;;;;;523771;28;1033;-76
2022/02/27 01:12:04;;;;;;;13.20;6.15;;;;;;;;;;523643;28;1372;-76
2022/02/27 01:12:19;;;;;;;12.98;6.20;;;;;;;;;;524635;28;1238;-76
2022/02/27 01:12:35;;;;;;;13.57;6.00;;;;;;;;;;525447;28;1315;-75
2022/02/27 01:12:50;;;;;;;14.15;6.00;;;;;;;;;;525147;28;1467;-76
2022/02/27 01:13:05;;;;;;;12.87;5.90;;;;;;;;;;525570;28;1215;-76
2022/02/27 01:13:21;;;;;;;12.53;5.90;;;;;;;;;;525793;28;748;-76
2022/02/27 01:13:37;;;;;;;13.75;6.20;;;;;;;;;;525565;28;1236;-76
2022/02/27 01:13:53;;;;;;;13.50;6.00;;;;;;;;;;525478;28;871;-75
2022/02/27 01:14:08;;;;;;;11.30;5.72;;;;;;;;;;525451;28;824;-75
2022/02/27 01:14:24;;;;;;;11.27;6.07;;;;;;;;;;524292;28;895;-75
2022/02/27 01:14:39;;;;;;;10.82;6.05;;;;;;;;;;525543;28;748;-75
2022/02/27 01:14:54;;;;;;;11.20;5.70;;;;;;;;;;525004;28;811;-75
2022/02/27 01:15:10;;;;;;;12.98;5.72;;;;;;;;;;522371;28;1547;-75
2022/02/27 01:15:26;;;;;;;13.00;5.90;;;;;;;;;;522762;28;962;-75
2022/02/27 01:15:41;;;;;;;12.15;5.88;;;;;;;;;;523338;28;1191;-75
2022/02/27 01:15:56;;;;;;;11.60;5.80;;;;;;;;;;523634;28;732;-75
2022/02/27 01:16:11;;;;;;;11.13;5.60;;;;;;;;;;523555;28;793;-76
2022/02/27 01:16:27;;;;;;;10.55;5.53;;;;;;;;;;522960;28;1587;-76
2022/02/27 01:16:42;;;;;;;11.90;5.70;;;;;;;;;;522811;28;760;-75
2022/02/27 01:17:01;;;;;;;14.32;5.88;;;;;;;;;;523001;28;812;-76
2022/02/27 01:17:16;;;;;;;12.90;5.85;;;;;;;;;;524105;28;765;-76
2022/02/27 01:17:31;;;;;;;13.02;5.88;;;;;;;;;;525583;28;903;-76
2022/02/27 01:17:47;;;;;;;13.57;5.87;;;;;;;;;;525602;28;753;-76
2022/02/27 01:18:02;;;;;;;12.00;5.60;;;;;;;;;;525482;28;697;-76
2022/02/27 01:18:17;;;;;;;11.95;5.50;;;;;;;;;;525604;28;847;-76
2022/02/27 01:18:33;;;;;;;12.07;5.67;;;;;;;;;;525496;28;1028;-76
2022/02/27 01:18:49;;;;;;;11.30;5.73;;;;;;;;;;524536;28;1122;-76
2022/02/27 01:19:05;;;;;;;13.65;6.05;;;;;;;;;;523302;28;1019;-76
2022/02/27 01:19:20;;;;;;;13.57;6.30;;;;;;;;;;521323;28;1241;-76
2022/02/27 01:19:35;;;;;;;11.88;6.10;;;;;;;;;;522103;28;1158;-77
2022/02/27 01:19:51;;;;;;;12.23;5.83;;;;;;;;;;525773;28;888;-77
2022/02/27 01:20:07;;;;;;;13.00;5.77;;;;;;;;;;522821;28;1543;-77
2022/02/27 01:20:22;;;;;;;12.45;5.90;;;;;;;;;;520835;28;1421;-76
2022/02/27 01:20:38;;;;;;;13.10;5.90;;;;;;;;;;519474;28;883;-76
2022/02/27 01:20:53;;;;;;;13.90;5.90;;;;;;;;;;521617;28;717;-76
2022/02/27 01:21:08;;;;;;;12.38;5.80;;;;;;;;;;520898;28;938;-75
2022/02/27 01:21:24;;;;;;;11.97;5.77;;;;;;;;;;521524;28;1058;-75
2022/02/27 01:21:39;;;;;;;13.53;5.93;;;;;;;;;;521359;28;1342;-75
2022/02/27 01:21:54;;;;;;;13.43;5.78;;;;;;;;;;521543;28;1196;-76
2022/02/27 01:22:10;;;;;;;12.13;5.60;;;;;;;;;;523377;28;768;-75
2022/02/27 01:22:25;;;;;;;12.15;5.50;;;;;;;;;;523240;28;756;-75
2022/02/27 01:22:40;;;;;;;12.27;5.53;;;;;;;;;;523263;28;931;-75
2022/02/27 01:22:56;;;;;;;12.50;5.80;;;;;;;;;;523351;28;887;-75
2022/02/27 01:23:11;;;;;;;13.18;5.80;;;;;;;;;;522789;28;768;-76
2022/02/27 01:23:27;;;;;;;12.77;5.80;;;;;;;;;;523719;28;876;-75
2022/02/27 01:23:44;;;;;;;12.48;5.78;;;;;;;;;;525336;28;990;-75
2022/02/27 01:23:59;;;;;;;12.88;5.68;;;;;;;;;;523833;28;966;-76
2022/02/27 01:24:16;;;;;;;12.67;5.77;;;;;;;;;;523135;28;1451;-75
2022/02/27 01:24:32;;;;;;;12.50;5.85;;;;;;;;;;523618;28;1277;-76
2022/02/27 01:24:47;;;;;;;11.88;5.75;;;;;;;;;;523492;28;1263;-76
2022/02/27 01:25:04;;;;;;;11.40;5.60;;;;;;;;;;523530;28;827;-76
2022/02/27 01:25:19;;;;;;;10.93;5.78;;;;;;;;;;523028;28;1254;-76
2022/02/27 01:25:34;;;;;;;10.73;5.80;;;;;;;;;;523587;28;852;-77
2022/02/27 01:25:50;;;;;;;12.48;5.85;;;;;;;;;;521218;28;1155;-76
2022/02/27 01:26:06;;;;;;;12.00;5.83;;;;;;;;;;522181;28;923;-76
2022/02/27 01:26:22;;;;;;;11.00;5.93;;;;;;;;;;521607;28;844;-76
2022/02/27 01:26:37;;;;;;;12.07;6.00;;;;;;;;;;522095;28;1309;-76
2022/02/27 01:26:52;;;;;;;13.00;5.97;;;;;;;;;;523604;28;772;-76
2022/02/27 01:27:08;;;;;;;13.02;5.82;;;;;;;;;;521247;28;1381;-76
2022/02/27 01:27:23;;;;;;;11.47;5.70;;;;;;;;;;522364;28;816;-76
2022/02/27 01:27:38;;;;;;;10.73;5.83;;;;;;;;;;523558;28;697;-75
2022/02/27 01:27:55;;;;;;;11.45;5.90;;;;;;;;;;521355;28;1937;-76
2022/02/27 01:28:10;;;;;;;11.15;5.72;;;;;;;;;;521635;28;1375;-75
2022/02/27 01:28:25;;;;;;;12.25;5.75;;;;;;;;;;521945;28;918;-75
2022/02/27 01:28:41;;;;;;;12.67;5.90;;;;;;;;;;522878;28;951;-75
2022/02/27 01:28:56;;;;;;;12.23;5.93;;;;;;;;;;523405;28;1241;-76
2022/02/27 01:29:12;;;;;;;11.63;5.78;;;;;;;;;;521720;28;1428;-76
2022/02/27 01:29:27;;;;;;;11.50;5.67;;;;;;;;;;521364;28;931;-75
2022/02/27 01:29:42;;;;;;;11.67;5.97;;;;;;;;;;523616;28;828;-76
2022/02/27 01:29:57;;;;;;;11.32;6.20;;;;;;;;;;523074;28;1219;-75
2022/02/27 01:30:13;;;;;;;10.87;5.63;;;;;;;;;;520739;28;1462;-76
2022/02/27 01:30:28;;;;;;;12.13;5.32;;;;;;;;;;521168;28;1039;-75
2022/02/27 01:30:43;;;;;;;13.63;5.67;;;;;;;;;;521482;28;844;-76
2022/02/27 01:30:59;;;;;;;13.67;5.93;;;;;;;;;;521648;28;1288;-76
2022/02/27 01:31:14;;;;;;;13.53;5.97;;;;;;;;;;523178;28;1195;-76
2022/02/27 01:31:29;;;;;;;12.45;5.80;;;;;;;;;;520648;28;1159;-76
2022/02/27 01:31:44;;;;;;;13.73;5.87;;;;;;;;;;519387;28;1199;-76
2022/02/27 01:32:00;;;;;;;13.20;5.73;;;;;;;;;;521644;28;749;-76
2022/02/27 01:32:15;;;;;;;10.77;5.53;;;;;;;;;;522005;28;990;-76
2022/02/27 01:32:30;;;;;;;11.57;5.60;;;;;;;;;;523496;28;744;-75
2022/02/27 01:32:46;;;;;;;12.20;5.53;;;;;;;;;;523299;28;1265;-76
2022/02/27 01:33:01;;;;;;;11.30;5.60;;;;;;;;;;523707;28;744;-76
2022/02/27 01:33:16;;;;;;;11.40;5.67;;;;;;;;;;521414;28;1175;-76
2022/02/27 01:33:32;;;;;;;11.37;5.80;;;;;;;;;;519080;28;1337;-76
2022/02/27 01:33:47;;;;;;;12.73;5.90;;;;;;;;;;516853;28;1169;-76
2022/02/27 01:34:02;;;;;;;13.37;6.00;;;;;;;;;;517176;28;796;-76
2022/02/27 01:34:17;;;;;;;12.27;5.90;;;;;;;;;;516852;28;762;-76
2022/02/27 01:34:33;;;;;;;13.05;6.07;;;;;;;;;;517496;28;824;-76
2022/02/27 01:34:48;;;;;;;11.87;5.90;;;;;;;;;;519101;28;1268;-76